sensor_id;sensor_type;location;lat;lon;timestamp;P1;durP1;ratioP1;P2;durP2;ratioP2
9322;SDS011;4700;48.822;9.270;2023-04-12T00:01:14;125.30;;;80.73;;
9322;SDS011;4700;48.822;9.270;2023-04-12T00:04:01;128.30;;;82.87;;
9322;SDS011;4700;48.822;9.270;2023-04-12T00:06:47;132.33;;;81.30;;
9322;SDS011;4700;48.822;9.270;2023-04-12T00:09:33;118.13;;;78.13;;
9322;SDS011;4700;48.822;9.270;2023-04-12T00:12:22;129.30;;;82.03;;
9322;SDS011;4700;48.822;9.270;2023-04-12T00:15:08;120.90;;;81.73;;
9322;SDS011;4700;48.822;9.270;2023-04-12T00:17:54;121.27;;;79.93;;
9322;SDS011;4700;48.822;9.270;2023-04-12T00:20:43;120.70;;;80.03;;
9322;SDS011;4700;48.822;9.270;2023-04-12T00:23:29;130.20;;;84.87;;
9322;SDS011;4700;48.822;9.270;2023-04-12T00:26:16;124.33;;;80.30;;
9322;SDS011;4700;48.822;9.270;2023-04-12T00:29:03;117.67;;;78.63;;
9322;SDS011;4700;48.822;9.270;2023-04-12T00:31:49;136.50;;;84.30;;
9322;SDS011;4700;48.822;9.270;2023-04-12T00:34:35;129.73;;;85.20;;
9322;SDS011;4700;48.822;9.270;2023-04-12T00:37:22;127.27;;;80.77;;
9322;SDS011;4700;48.822;9.270;2023-04-12T00:40:09;134.93;;;82.93;;
9322;SDS011;4700;48.822;9.270;2023-04-12T00:42:55;120.83;;;78.90;;
9322;SDS011;4700;48.822;9.270;2023-04-12T00:45:41;120.30;;;80.83;;
9322;SDS011;4700;48.822;9.270;2023-04-12T00:48:27;125.73;;;80.47;;
9322;SDS011;4700;48.822;9.270;2023-04-12T00:51:13;116.60;;;76.70;;
9322;SDS011;4700;48.822;9.270;2023-04-12T00:54:02;130.20;;;81.30;;
9322;SDS011;4700;48.822;9.270;2023-04-12T00:56:50;124.93;;;78.93;;
9322;SDS011;4700;48.822;9.270;2023-04-12T00:59:36;133.27;;;81.93;;
9322;SDS011;4700;48.822;9.270;2023-04-12T01:02:21;142.00;;;84.83;;
9322;SDS011;4700;48.822;9.270;2023-04-12T01:05:07;133.53;;;81.63;;
9322;SDS011;4700;48.822;9.270;2023-04-12T01:07:59;128.03;;;80.77;;
9322;SDS011;4700;48.822;9.270;2023-04-12T01:11:02;134.60;;;80.53;;
9322;SDS011;4700;48.822;9.270;2023-04-12T01:13:54;142.67;;;83.37;;
9322;SDS011;4700;48.822;9.270;2023-04-12T01:16:46;137.03;;;81.20;;
9322;SDS011;4700;48.822;9.270;2023-04-12T01:19:41;133.80;;;79.13;;
9322;SDS011;4700;48.822;9.270;2023-04-12T01:22:41;124.83;;;77.30;;
9322;SDS011;4700;48.822;9.270;2023-04-12T01:26:04;137.33;;;79.50;;
9322;SDS011;4700;48.822;9.270;2023-04-12T01:29:02;144.23;;;81.73;;
9322;SDS011;4700;48.822;9.270;2023-04-12T01:31:53;141.30;;;80.93;;
9322;SDS011;4700;48.822;9.270;2023-04-12T01:34:43;140.70;;;83.03;;
9322;SDS011;4700;48.822;9.270;2023-04-12T01:37:30;133.23;;;77.93;;
9322;SDS011;4700;48.822;9.270;2023-04-12T01:40:16;135.70;;;80.53;;
9322;SDS011;4700;48.822;9.270;2023-04-12T01:43:06;140.43;;;80.93;;
9322;SDS011;4700;48.822;9.270;2023-04-12T01:45:54;142.13;;;83.03;;
9322;SDS011;4700;48.822;9.270;2023-04-12T01:48:40;142.67;;;80.03;;
9322;SDS011;4700;48.822;9.270;2023-04-12T01:51:33;135.87;;;79.60;;
9322;SDS011;4700;48.822;9.270;2023-04-12T01:54:26;142.00;;;81.67;;
9322;SDS011;4700;48.822;9.270;2023-04-12T01:57:14;145.73;;;81.10;;
9322;SDS011;4700;48.822;9.270;2023-04-12T02:00:02;152.70;;;83.40;;
9322;SDS011;4700;48.822;9.270;2023-04-12T02:02:51;140.90;;;80.57;;
9322;SDS011;4700;48.822;9.270;2023-04-12T02:05:37;133.73;;;78.03;;
9322;SDS011;4700;48.822;9.270;2023-04-12T02:08:23;145.13;;;80.93;;
9322;SDS011;4700;48.822;9.270;2023-04-12T02:11:11;145.73;;;81.57;;
9322;SDS011;4700;48.822;9.270;2023-04-12T02:13:59;146.77;;;80.83;;
9322;SDS011;4700;48.822;9.270;2023-04-12T02:16:45;143.83;;;80.53;;
9322;SDS011;4700;48.822;9.270;2023-04-12T02:19:32;147.27;;;81.37;;
9322;SDS011;4700;48.822;9.270;2023-04-12T02:22:18;140.90;;;78.23;;
9322;SDS011;4700;48.822;9.270;2023-04-12T02:25:04;140.13;;;80.90;;
9322;SDS011;4700;48.822;9.270;2023-04-12T02:27:50;137.40;;;78.20;;
9322;SDS011;4700;48.822;9.270;2023-04-12T02:30:36;145.83;;;78.80;;
9322;SDS011;4700;48.822;9.270;2023-04-12T02:33:24;147.20;;;79.67;;
9322;SDS011;4700;48.822;9.270;2023-04-12T02:36:12;145.73;;;78.20;;
9322;SDS011;4700;48.822;9.270;2023-04-12T02:38:57;141.30;;;77.47;;
9322;SDS011;4700;48.822;9.270;2023-04-12T02:41:46;146.43;;;80.70;;
9322;SDS011;4700;48.822;9.270;2023-04-12T02:44:32;151.53;;;79.90;;
9322;SDS011;4700;48.822;9.270;2023-04-12T02:47:18;140.73;;;78.50;;
9322;SDS011;4700;48.822;9.270;2023-04-12T02:50:04;151.10;;;80.73;;
9322;SDS011;4700;48.822;9.270;2023-04-12T02:52:52;148.27;;;79.63;;
9322;SDS011;4700;48.822;9.270;2023-04-12T02:55:38;156.13;;;79.17;;
9322;SDS011;4700;48.822;9.270;2023-04-12T02:58:15;145.83;;;77.47;;
9322;SDS011;4700;48.822;9.270;2023-04-12T03:01:01;148.73;;;81.40;;
9322;SDS011;4700;48.822;9.270;2023-04-12T03:03:50;149.33;;;79.43;;
9322;SDS011;4700;48.822;9.270;2023-04-12T03:06:36;153.70;;;79.87;;
9322;SDS011;4700;48.822;9.270;2023-04-12T03:09:27;149.80;;;79.73;;
9322;SDS011;4700;48.822;9.270;2023-04-12T03:12:18;147.43;;;78.67;;
9322;SDS011;4700;48.822;9.270;2023-04-12T03:15:07;160.40;;;81.00;;
9322;SDS011;4700;48.822;9.270;2023-04-12T03:17:53;158.73;;;81.17;;
9322;SDS011;4700;48.822;9.270;2023-04-12T03:20:40;153.20;;;81.30;;
9322;SDS011;4700;48.822;9.270;2023-04-12T03:23:26;151.20;;;79.80;;
9322;SDS011;4700;48.822;9.270;2023-04-12T03:26:13;147.93;;;78.30;;
9322;SDS011;4700;48.822;9.270;2023-04-12T03:29:03;157.57;;;84.03;;
9322;SDS011;4700;48.822;9.270;2023-04-12T03:31:51;150.90;;;79.83;;
9322;SDS011;4700;48.822;9.270;2023-04-12T03:37:12;135.00;;;75.70;;
9322;SDS011;4700;48.822;9.270;2023-04-12T03:39:59;148.60;;;77.93;;
9322;SDS011;4700;48.822;9.270;2023-04-12T03:42:50;146.57;;;77.80;;
9322;SDS011;4700;48.822;9.270;2023-04-12T03:45:37;155.00;;;78.20;;
9322;SDS011;4700;48.822;9.270;2023-04-12T03:48:23;157.80;;;78.43;;
9322;SDS011;4700;48.822;9.270;2023-04-12T03:51:20;170.10;;;83.97;;
9322;SDS011;4700;48.822;9.270;2023-04-12T03:54:09;166.33;;;82.40;;
9322;SDS011;4700;48.822;9.270;2023-04-12T03:56:55;162.60;;;81.20;;
9322;SDS011;4700;48.822;9.270;2023-04-12T03:59:43;158.63;;;80.07;;
9322;SDS011;4700;48.822;9.270;2023-04-12T04:02:29;162.23;;;79.93;;
9322;SDS011;4700;48.822;9.270;2023-04-12T04:05:16;169.20;;;84.13;;
9322;SDS011;4700;48.822;9.270;2023-04-12T04:08:02;166.33;;;83.00;;
9322;SDS011;4700;48.822;9.270;2023-04-12T04:10:50;179.50;;;85.73;;
9322;SDS011;4700;48.822;9.270;2023-04-12T04:13:36;186.13;;;86.63;;
9322;SDS011;4700;48.822;9.270;2023-04-12T04:16:23;165.53;;;81.60;;
9322;SDS011;4700;48.822;9.270;2023-04-12T04:19:09;177.13;;;85.67;;
9322;SDS011;4700;48.822;9.270;2023-04-12T04:21:56;159.67;;;80.30;;
9322;SDS011;4700;48.822;9.270;2023-04-12T04:24:44;166.23;;;83.47;;
9322;SDS011;4700;48.822;9.270;2023-04-12T04:27:31;170.53;;;83.63;;
9322;SDS011;4700;48.822;9.270;2023-04-12T04:30:17;163.10;;;81.10;;
9322;SDS011;4700;48.822;9.270;2023-04-12T04:33:07;168.00;;;82.03;;
9322;SDS011;4700;48.822;9.270;2023-04-12T04:35:54;173.30;;;85.63;;
9322;SDS011;4700;48.822;9.270;2023-04-12T04:38:40;199.30;;;101.23;;
9322;SDS011;4700;48.822;9.270;2023-04-12T04:46:32;177.40;;;100.30;;
9322;SDS011;4700;48.822;9.270;2023-04-12T05:10:07;173.53;;;87.40;;
9322;SDS011;4700;48.822;9.270;2023-04-12T05:12:53;209.00;;;101.17;;
9322;SDS011;4700;48.822;9.270;2023-04-12T05:43:56;294.23;;;138.97;;
9322;SDS011;4700;48.822;9.270;2023-04-12T05:49:19;267.00;;;114.20;;
9322;SDS011;4700;48.822;9.270;2023-04-12T05:52:06;269.10;;;119.53;;
9322;SDS011;4700;48.822;9.270;2023-04-12T06:07:58;234.90;;;99.13;;
9322;SDS011;4700;48.822;9.270;2023-04-12T06:15:59;254.90;;;107.43;;
9322;SDS011;4700;48.822;9.270;2023-04-12T07:21:03;149.20;;;137.70;;
9322;SDS011;4700;48.822;9.270;2023-04-12T07:23:50;145.10;;;134.13;;
9322;SDS011;4700;48.822;9.270;2023-04-12T07:29:08;112.27;;;101.87;;
9322;SDS011;4700;48.822;9.270;2023-04-12T07:31:54;137.37;;;127.73;;
9322;SDS011;4700;48.822;9.270;2023-04-12T07:34:40;125.87;;;117.10;;
9322;SDS011;4700;48.822;9.270;2023-04-12T07:37:27;126.93;;;116.43;;
9322;SDS011;4700;48.822;9.270;2023-04-12T07:40:16;127.77;;;118.13;;
9322;SDS011;4700;48.822;9.270;2023-04-12T07:43:01;120.43;;;111.83;;
9322;SDS011;4700;48.822;9.270;2023-04-12T07:45:47;134.50;;;124.70;;
9322;SDS011;4700;48.822;9.270;2023-04-12T07:48:33;120.30;;;109.23;;
9322;SDS011;4700;48.822;9.270;2023-04-12T07:51:19;118.57;;;107.10;;
9322;SDS011;4700;48.822;9.270;2023-04-12T07:54:07;131.67;;;119.67;;
9322;SDS011;4700;48.822;9.270;2023-04-12T07:56:58;142.60;;;131.53;;
9322;SDS011;4700;48.822;9.270;2023-04-12T07:59:47;135.27;;;124.90;;
9322;SDS011;4700;48.822;9.270;2023-04-12T08:02:35;122.50;;;110.53;;
9322;SDS011;4700;48.822;9.270;2023-04-12T08:05:21;147.87;;;136.00;;
9322;SDS011;4700;48.822;9.270;2023-04-12T08:08:07;148.20;;;137.30;;
9322;SDS011;4700;48.822;9.270;2023-04-12T08:10:55;134.63;;;121.43;;
9322;SDS011;4700;48.822;9.270;2023-04-12T08:13:41;138.33;;;124.20;;
9322;SDS011;4700;48.822;9.270;2023-04-12T08:16:27;125.53;;;112.10;;
9322;SDS011;4700;48.822;9.270;2023-04-12T08:19:14;119.27;;;106.73;;
9322;SDS011;4700;48.822;9.270;2023-04-12T08:21:59;128.33;;;117.67;;
9322;SDS011;4700;48.822;9.270;2023-04-12T08:24:45;161.20;;;147.07;;
9322;SDS011;4700;48.822;9.270;2023-04-12T08:27:38;113.80;;;99.63;;
9322;SDS011;4700;48.822;9.270;2023-04-12T08:30:38;129.00;;;109.17;;
9322;SDS011;4700;48.822;9.270;2023-04-12T08:33:24;124.47;;;97.97;;
9322;SDS011;4700;48.822;9.270;2023-04-12T08:36:11;119.47;;;99.73;;
9322;SDS011;4700;48.822;9.270;2023-04-12T08:38:57;118.30;;;98.33;;
9322;SDS011;4700;48.822;9.270;2023-04-12T08:41:43;120.97;;;97.93;;
9322;SDS011;4700;48.822;9.270;2023-04-12T08:44:34;118.60;;;97.83;;
9322;SDS011;4700;48.822;9.270;2023-04-12T08:47:21;111.20;;;91.53;;
9322;SDS011;4700;48.822;9.270;2023-04-12T08:50:08;114.80;;;93.60;;
9322;SDS011;4700;48.822;9.270;2023-04-12T08:52:56;124.97;;;105.23;;
9322;SDS011;4700;48.822;9.270;2023-04-12T08:55:43;122.40;;;100.60;;
9322;SDS011;4700;48.822;9.270;2023-04-12T08:58:29;123.37;;;102.70;;
9322;SDS011;4700;48.822;9.270;2023-04-12T09:01:17;113.13;;;101.03;;
9322;SDS011;4700;48.822;9.270;2023-04-12T09:04:05;105.50;;;94.37;;
9322;SDS011;4700;48.822;9.270;2023-04-12T09:06:51;94.03;;;83.87;;
9322;SDS011;4700;48.822;9.270;2023-04-12T09:09:40;106.57;;;95.23;;
9322;SDS011;4700;48.822;9.270;2023-04-12T09:12:27;117.17;;;105.37;;
9322;SDS011;4700;48.822;9.270;2023-04-12T09:15:13;94.93;;;84.97;;
9322;SDS011;4700;48.822;9.270;2023-04-12T09:18:06;98.60;;;88.20;;
9322;SDS011;4700;48.822;9.270;2023-04-12T09:21:05;105.83;;;95.20;;
9322;SDS011;4700;48.822;9.270;2023-04-12T09:24:00;107.47;;;96.10;;
9322;SDS011;4700;48.822;9.270;2023-04-12T09:26:48;133.30;;;119.90;;
9322;SDS011;4700;48.822;9.270;2023-04-12T09:29:29;137.17;;;124.37;;
9322;SDS011;4700;48.822;9.270;2023-04-12T09:32:23;119.93;;;108.90;;
9322;SDS011;4700;48.822;9.270;2023-04-12T09:35:13;130.83;;;117.73;;
9322;SDS011;4700;48.822;9.270;2023-04-12T09:38:05;110.73;;;100.07;;
9322;SDS011;4700;48.822;9.270;2023-04-12T09:40:51;123.53;;;111.03;;
9322;SDS011;4700;48.822;9.270;2023-04-12T09:43:38;123.47;;;111.97;;
9322;SDS011;4700;48.822;9.270;2023-04-12T09:46:24;132.97;;;120.57;;
9322;SDS011;4700;48.822;9.270;2023-04-12T09:49:10;133.93;;;120.97;;
9322;SDS011;4700;48.822;9.270;2023-04-12T09:51:58;137.43;;;124.90;;
9322;SDS011;4700;48.822;9.270;2023-04-12T09:54:44;141.63;;;127.73;;
9322;SDS011;4700;48.822;9.270;2023-04-12T09:57:31;117.50;;;106.70;;
9322;SDS011;4700;48.822;9.270;2023-04-12T10:00:18;128.97;;;117.33;;
9322;SDS011;4700;48.822;9.270;2023-04-12T10:03:06;130.97;;;119.67;;
9322;SDS011;4700;48.822;9.270;2023-04-12T10:05:53;143.27;;;131.10;;
9322;SDS011;4700;48.822;9.270;2023-04-12T10:08:40;124.00;;;113.70;;
9322;SDS011;4700;48.822;9.270;2023-04-12T10:11:26;124.53;;;113.63;;
9322;SDS011;4700;48.822;9.270;2023-04-12T10:14:13;118.20;;;107.77;;
9322;SDS011;4700;48.822;9.270;2023-04-12T10:17:02;122.37;;;111.53;;
9322;SDS011;4700;48.822;9.270;2023-04-12T10:19:49;111.13;;;101.37;;
9322;SDS011;4700;48.822;9.270;2023-04-12T10:22:37;121.97;;;111.60;;
9322;SDS011;4700;48.822;9.270;2023-04-12T10:25:25;99.30;;;91.90;;
9322;SDS011;4700;48.822;9.270;2023-04-12T10:28:17;104.40;;;95.83;;
9322;SDS011;4700;48.822;9.270;2023-04-12T10:34:14;122.60;;;113.20;;
9322;SDS011;4700;48.822;9.270;2023-04-12T10:37:00;71.00;;;65.90;;
9322;SDS011;4700;48.822;9.270;2023-04-12T10:39:50;84.23;;;77.43;;
9322;SDS011;4700;48.822;9.270;2023-04-12T10:42:38;56.77;;;52.27;;
9322;SDS011;4700;48.822;9.270;2023-04-12T10:45:34;56.00;;;50.90;;
9322;SDS011;4700;48.822;9.270;2023-04-12T10:48:28;61.00;;;55.53;;
9322;SDS011;4700;48.822;9.270;2023-04-12T10:51:16;58.97;;;54.07;;
9322;SDS011;4700;48.822;9.270;2023-04-12T11:07:05;113.67;;;103.57;;
9322;SDS011;4700;48.822;9.270;2023-04-12T11:09:55;53.13;;;49.10;;
9322;SDS011;4700;48.822;9.270;2023-04-12T11:12:41;63.50;;;58.13;;
9322;SDS011;4700;48.822;9.270;2023-04-12T11:15:37;75.27;;;68.77;;
9322;SDS011;4700;48.822;9.270;2023-04-12T11:18:25;108.37;;;98.73;;
9322;SDS011;4700;48.822;9.270;2023-04-12T11:21:12;87.77;;;82.03;;
9322;SDS011;4700;48.822;9.270;2023-04-12T11:23:58;100.73;;;91.53;;
9322;SDS011;4700;48.822;9.270;2023-04-12T11:26:44;78.87;;;72.13;;
9322;SDS011;4700;48.822;9.270;2023-04-12T11:29:33;74.07;;;67.77;;
9322;SDS011;4700;48.822;9.270;2023-04-12T11:32:20;74.73;;;68.53;;
9322;SDS011;4700;48.822;9.270;2023-04-12T11:35:07;87.37;;;78.30;;
9322;SDS011;4700;48.822;9.270;2023-04-12T11:37:55;82.47;;;74.67;;
9322;SDS011;4700;48.822;9.270;2023-04-12T11:40:41;74.73;;;67.77;;
9322;SDS011;4700;48.822;9.270;2023-04-12T11:43:30;58.00;;;54.33;;
9322;SDS011;4700;48.822;9.270;2023-04-12T11:46:18;89.40;;;81.90;;
9322;SDS011;4700;48.822;9.270;2023-04-12T11:49:04;77.27;;;70.30;;
9322;SDS011;4700;48.822;9.270;2023-04-12T11:51:59;77.80;;;70.60;;
9322;SDS011;4700;48.822;9.270;2023-04-12T11:54:47;88.70;;;80.93;;
9322;SDS011;4700;48.822;9.270;2023-04-12T11:57:33;70.40;;;63.83;;
9322;SDS011;4700;48.822;9.270;2023-04-12T12:00:21;51.67;;;46.80;;
9322;SDS011;4700;48.822;9.270;2023-04-12T12:03:12;64.53;;;51.63;;
9322;SDS011;4700;48.822;9.270;2023-04-12T12:05:58;27.00;;;24.50;;
9322;SDS011;4700;48.822;9.270;2023-04-12T12:08:44;29.53;;;26.80;;
9322;SDS011;4700;48.822;9.270;2023-04-12T12:11:30;49.87;;;44.90;;
9322;SDS011;4700;48.822;9.270;2023-04-12T12:14:17;35.70;;;32.80;;
9322;SDS011;4700;48.822;9.270;2023-04-12T12:17:08;54.70;;;47.97;;
9322;SDS011;4700;48.822;9.270;2023-04-12T12:19:57;36.97;;;29.27;;
9322;SDS011;4700;48.822;9.270;2023-04-12T12:22:44;40.20;;;32.67;;
9322;SDS011;4700;48.822;9.270;2023-04-12T12:25:30;44.97;;;41.07;;
9322;SDS011;4700;48.822;9.270;2023-04-12T12:28:16;43.97;;;36.87;;
9322;SDS011;4700;48.822;9.270;2023-04-12T12:31:04;47.17;;;42.00;;
9322;SDS011;4700;48.822;9.270;2023-04-12T12:33:52;55.37;;;39.77;;
9322;SDS011;4700;48.822;9.270;2023-04-12T12:36:41;88.67;;;55.33;;
9322;SDS011;4700;48.822;9.270;2023-04-12T12:39:26;44.37;;;39.97;;
9322;SDS011;4700;48.822;9.270;2023-04-12T12:42:13;37.93;;;32.37;;
9322;SDS011;4700;48.822;9.270;2023-04-12T12:45:02;38.07;;;33.97;;
9322;SDS011;4700;48.822;9.270;2023-04-12T12:47:52;39.70;;;32.70;;
9322;SDS011;4700;48.822;9.270;2023-04-12T12:50:42;41.80;;;37.67;;
9322;SDS011;4700;48.822;9.270;2023-04-12T12:53:29;48.00;;;43.83;;
9322;SDS011;4700;48.822;9.270;2023-04-12T12:56:15;43.77;;;35.37;;
9322;SDS011;4700;48.822;9.270;2023-04-12T12:59:01;69.00;;;53.93;;
9322;SDS011;4700;48.822;9.270;2023-04-12T13:01:47;56.93;;;44.37;;
9322;SDS011;4700;48.822;9.270;2023-04-12T13:04:33;51.93;;;47.07;;
9322;SDS011;4700;48.822;9.270;2023-04-12T13:07:19;47.60;;;35.00;;
9322;SDS011;4700;48.822;9.270;2023-04-12T13:10:06;43.83;;;39.23;;
9322;SDS011;4700;48.822;9.270;2023-04-12T13:12:53;47.07;;;42.47;;
9322;SDS011;4700;48.822;9.270;2023-04-12T13:15:38;52.93;;;42.47;;
9322;SDS011;4700;48.822;9.270;2023-04-12T13:18:24;24.60;;;22.17;;
9322;SDS011;4700;48.822;9.270;2023-04-12T13:21:11;48.73;;;38.37;;
9322;SDS011;4700;48.822;9.270;2023-04-12T13:23:57;30.30;;;27.03;;
9322;SDS011;4700;48.822;9.270;2023-04-12T13:26:44;44.93;;;30.93;;
9322;SDS011;4700;48.822;9.270;2023-04-12T13:29:30;34.83;;;27.83;;
9322;SDS011;4700;48.822;9.270;2023-04-12T13:32:15;25.20;;;22.67;;
9322;SDS011;4700;48.822;9.270;2023-04-12T13:35:02;28.03;;;26.10;;
9322;SDS011;4700;48.822;9.270;2023-04-12T13:37:51;50.10;;;42.03;;
9322;SDS011;4700;48.822;9.270;2023-04-12T13:40:36;39.27;;;35.23;;
9322;SDS011;4700;48.822;9.270;2023-04-12T13:43:24;32.27;;;27.77;;
9322;SDS011;4700;48.822;9.270;2023-04-12T13:46:10;56.27;;;47.43;;
9322;SDS011;4700;48.822;9.270;2023-04-12T13:48:56;42.53;;;38.63;;
9322;SDS011;4700;48.822;9.270;2023-04-12T13:51:42;34.10;;;28.47;;
9322;SDS011;4700;48.822;9.270;2023-04-12T13:54:28;45.37;;;36.13;;
9322;SDS011;4700;48.822;9.270;2023-04-12T13:57:14;37.67;;;33.83;;
9322;SDS011;4700;48.822;9.270;2023-04-12T14:00:01;46.73;;;39.20;;
9322;SDS011;4700;48.822;9.270;2023-04-12T14:02:50;45.93;;;32.33;;
9322;SDS011;4700;48.822;9.270;2023-04-12T14:05:36;37.10;;;33.40;;
9322;SDS011;4700;48.822;9.270;2023-04-12T14:08:22;38.90;;;33.70;;
9322;SDS011;4700;48.822;9.270;2023-04-12T14:11:08;30.07;;;27.10;;
9322;SDS011;4700;48.822;9.270;2023-04-12T14:13:54;47.53;;;41.93;;
9322;SDS011;4700;48.822;9.270;2023-04-12T14:16:41;26.37;;;23.67;;
9322;SDS011;4700;48.822;9.270;2023-04-12T14:19:27;25.00;;;22.73;;
9322;SDS011;4700;48.822;9.270;2023-04-12T14:22:13;23.13;;;21.13;;
9322;SDS011;4700;48.822;9.270;2023-04-12T14:24:59;65.33;;;54.13;;
9322;SDS011;4700;48.822;9.270;2023-04-12T14:27:45;29.37;;;26.93;;
9322;SDS011;4700;48.822;9.270;2023-04-12T14:30:27;46.97;;;39.53;;
9322;SDS011;4700;48.822;9.270;2023-04-12T14:33:15;29.03;;;26.80;;
9322;SDS011;4700;48.822;9.270;2023-04-12T14:36:00;42.93;;;38.87;;
9322;SDS011;4700;48.822;9.270;2023-04-12T14:38:48;42.83;;;38.00;;
9322;SDS011;4700;48.822;9.270;2023-04-12T14:41:37;42.20;;;37.97;;
9322;SDS011;4700;48.822;9.270;2023-04-12T14:44:24;24.03;;;21.60;;
9322;SDS011;4700;48.822;9.270;2023-04-12T14:47:10;50.07;;;43.13;;
9322;SDS011;4700;48.822;9.270;2023-04-12T14:49:57;30.80;;;24.57;;
9322;SDS011;4700;48.822;9.270;2023-04-12T14:52:43;23.10;;;21.07;;
9322;SDS011;4700;48.822;9.270;2023-04-12T14:55:31;37.20;;;33.63;;
9322;SDS011;4700;48.822;9.270;2023-04-12T14:58:16;42.13;;;31.37;;
9322;SDS011;4700;48.822;9.270;2023-04-12T15:01:02;57.90;;;35.57;;
9322;SDS011;4700;48.822;9.270;2023-04-12T15:03:48;27.00;;;23.47;;
9322;SDS011;4700;48.822;9.270;2023-04-12T15:06:35;35.37;;;31.40;;
9322;SDS011;4700;48.822;9.270;2023-04-12T15:09:25;30.63;;;28.07;;
9322;SDS011;4700;48.822;9.270;2023-04-12T15:12:11;20.37;;;18.90;;
9322;SDS011;4700;48.822;9.270;2023-04-12T15:14:56;38.57;;;35.33;;
9322;SDS011;4700;48.822;9.270;2023-04-12T15:17:43;36.07;;;33.07;;
9322;SDS011;4700;48.822;9.270;2023-04-12T15:20:30;27.80;;;25.50;;
9322;SDS011;4700;48.822;9.270;2023-04-12T15:23:17;35.83;;;31.30;;
9322;SDS011;4700;48.822;9.270;2023-04-12T15:26:04;24.43;;;22.47;;
9322;SDS011;4700;48.822;9.270;2023-04-12T15:28:53;20.23;;;19.03;;
9322;SDS011;4700;48.822;9.270;2023-04-12T15:31:38;24.10;;;22.60;;
9322;SDS011;4700;48.822;9.270;2023-04-12T15:34:25;24.23;;;22.70;;
9322;SDS011;4700;48.822;9.270;2023-04-12T15:37:12;23.23;;;21.70;;
9322;SDS011;4700;48.822;9.270;2023-04-12T15:40:00;37.37;;;35.13;;
9322;SDS011;4700;48.822;9.270;2023-04-12T15:42:47;73.47;;;67.37;;
9322;SDS011;4700;48.822;9.270;2023-04-12T15:45:32;85.93;;;78.70;;
9322;SDS011;4700;48.822;9.270;2023-04-12T15:48:19;85.77;;;77.47;;
9322;SDS011;4700;48.822;9.270;2023-04-12T15:51:05;75.60;;;68.80;;
9322;SDS011;4700;48.822;9.270;2023-04-12T15:53:51;108.33;;;99.07;;
9322;SDS011;4700;48.822;9.270;2023-04-12T15:56:39;95.07;;;86.03;;
9322;SDS011;4700;48.822;9.270;2023-04-12T15:59:25;100.57;;;90.47;;
9322;SDS011;4700;48.822;9.270;2023-04-12T16:02:11;92.07;;;82.20;;
9322;SDS011;4700;48.822;9.270;2023-04-12T16:04:57;100.53;;;88.77;;
9322;SDS011;4700;48.822;9.270;2023-04-12T16:07:46;102.43;;;90.80;;
9322;SDS011;4700;48.822;9.270;2023-04-12T16:10:33;99.37;;;86.37;;
9322;SDS011;4700;48.822;9.270;2023-04-12T16:13:22;102.53;;;86.20;;
9322;SDS011;4700;48.822;9.270;2023-04-12T16:16:08;105.90;;;89.00;;
9322;SDS011;4700;48.822;9.270;2023-04-12T16:18:55;103.27;;;82.10;;
9322;SDS011;4700;48.822;9.270;2023-04-12T16:21:42;116.17;;;88.30;;
9322;SDS011;4700;48.822;9.270;2023-04-12T16:24:28;120.20;;;85.43;;
9322;SDS011;4700;48.822;9.270;2023-04-12T16:27:14;131.80;;;89.67;;
9322;SDS011;4700;48.822;9.270;2023-04-12T16:30:01;136.63;;;93.57;;
9322;SDS011;4700;48.822;9.270;2023-04-12T16:32:48;126.00;;;90.23;;
9322;SDS011;4700;48.822;9.270;2023-04-12T16:35:35;136.77;;;94.83;;
9322;SDS011;4700;48.822;9.270;2023-04-12T16:38:20;135.20;;;90.73;;
9322;SDS011;4700;48.822;9.270;2023-04-12T16:41:06;140.33;;;94.30;;
9322;SDS011;4700;48.822;9.270;2023-04-12T16:43:52;141.83;;;93.50;;
9322;SDS011;4700;48.822;9.270;2023-04-12T16:46:47;139.13;;;92.90;;
9322;SDS011;4700;48.822;9.270;2023-04-12T16:49:34;135.73;;;88.40;;
9322;SDS011;4700;48.822;9.270;2023-04-12T16:52:20;139.90;;;92.53;;
9322;SDS011;4700;48.822;9.270;2023-04-12T16:55:06;141.50;;;94.93;;
9322;SDS011;4700;48.822;9.270;2023-04-12T16:57:54;145.50;;;92.33;;
9322;SDS011;4700;48.822;9.270;2023-04-12T17:00:41;141.13;;;89.87;;
9322;SDS011;4700;48.822;9.270;2023-04-12T17:03:28;142.23;;;89.63;;
9322;SDS011;4700;48.822;9.270;2023-04-12T17:06:17;148.43;;;88.23;;
9322;SDS011;4700;48.822;9.270;2023-04-12T17:09:03;152.63;;;94.00;;
9322;SDS011;4700;48.822;9.270;2023-04-12T17:11:49;138.40;;;86.87;;
9322;SDS011;4700;48.822;9.270;2023-04-12T17:14:35;147.43;;;90.83;;
9322;SDS011;4700;48.822;9.270;2023-04-12T17:17:21;144.03;;;88.07;;
9322;SDS011;4700;48.822;9.270;2023-04-12T17:20:09;142.03;;;88.37;;
9322;SDS011;4700;48.822;9.270;2023-04-12T17:22:55;156.33;;;91.40;;
9322;SDS011;4700;48.822;9.270;2023-04-12T17:25:41;154.37;;;91.23;;
9322;SDS011;4700;48.822;9.270;2023-04-12T17:28:27;157.70;;;91.20;;
9322;SDS011;4700;48.822;9.270;2023-04-12T17:31:03;130.30;;;89.57;;
9322;SDS011;4700;48.822;9.270;2023-04-12T17:33:48;121.97;;;90.17;;
9322;SDS011;4700;48.822;9.270;2023-04-12T17:36:36;109.20;;;90.97;;
9322;SDS011;4700;48.822;9.270;2023-04-12T17:39:22;107.70;;;90.27;;
9322;SDS011;4700;48.822;9.270;2023-04-12T17:42:11;105.07;;;90.30;;
9322;SDS011;4700;48.822;9.270;2023-04-12T17:44:59;100.67;;;89.87;;
9322;SDS011;4700;48.822;9.270;2023-04-12T17:47:45;109.03;;;96.10;;
9322;SDS011;4700;48.822;9.270;2023-04-12T17:50:31;105.77;;;93.57;;
9322;SDS011;4700;48.822;9.270;2023-04-12T17:53:18;96.23;;;85.47;;
9322;SDS011;4700;48.822;9.270;2023-04-12T17:56:04;100.60;;;89.97;;
9322;SDS011;4700;48.822;9.270;2023-04-12T17:58:50;97.50;;;87.37;;
9322;SDS011;4700;48.822;9.270;2023-04-12T18:01:37;104.77;;;92.90;;
9322;SDS011;4700;48.822;9.270;2023-04-12T18:04:24;94.20;;;83.90;;
9322;SDS011;4700;48.822;9.270;2023-04-12T18:07:10;99.57;;;88.97;;
9322;SDS011;4700;48.822;9.270;2023-04-12T18:09:58;102.77;;;91.73;;
9322;SDS011;4700;48.822;9.270;2023-04-12T18:12:45;99.23;;;89.23;;
9322;SDS011;4700;48.822;9.270;2023-04-12T18:15:31;88.80;;;79.43;;
9322;SDS011;4700;48.822;9.270;2023-04-12T18:18:17;91.90;;;81.73;;
9322;SDS011;4700;48.822;9.270;2023-04-12T18:21:04;100.90;;;84.50;;
9322;SDS011;4700;48.822;9.270;2023-04-12T18:23:50;100.33;;;87.20;;
9322;SDS011;4700;48.822;9.270;2023-04-12T18:26:37;102.20;;;90.80;;
9322;SDS011;4700;48.822;9.270;2023-04-12T18:29:26;109.93;;;95.10;;
9322;SDS011;4700;48.822;9.270;2023-04-12T18:32:12;101.67;;;87.67;;
9322;SDS011;4700;48.822;9.270;2023-04-12T18:34:57;89.63;;;79.20;;
9322;SDS011;4700;48.822;9.270;2023-04-12T18:37:44;107.70;;;95.33;;
9322;SDS011;4700;48.822;9.270;2023-04-12T18:40:34;102.10;;;90.63;;
9322;SDS011;4700;48.822;9.270;2023-04-12T18:43:22;103.00;;;91.97;;
9322;SDS011;4700;48.822;9.270;2023-04-12T18:46:12;100.50;;;88.27;;
9322;SDS011;4700;48.822;9.270;2023-04-12T18:49:00;100.50;;;88.33;;
9322;SDS011;4700;48.822;9.270;2023-04-12T18:51:47;97.53;;;86.67;;
9322;SDS011;4700;48.822;9.270;2023-04-12T18:54:33;101.43;;;90.57;;
9322;SDS011;4700;48.822;9.270;2023-04-12T18:57:19;99.73;;;88.73;;
9322;SDS011;4700;48.822;9.270;2023-04-12T19:00:07;94.30;;;81.27;;
9322;SDS011;4700;48.822;9.270;2023-04-12T19:02:57;97.27;;;85.83;;
9322;SDS011;4700;48.822;9.270;2023-04-12T19:05:43;92.63;;;81.50;;
9322;SDS011;4700;48.822;9.270;2023-04-12T19:08:28;94.63;;;83.10;;
9322;SDS011;4700;48.822;9.270;2023-04-12T19:11:14;98.50;;;85.83;;
9322;SDS011;4700;48.822;9.270;2023-04-12T19:14:00;91.30;;;81.50;;
9322;SDS011;4700;48.822;9.270;2023-04-12T19:16:47;91.40;;;80.83;;